createdAt,value
2022-08-03T00:03:34.863Z,18.50
2022-08-03T00:08:40.159Z,15.40
2022-08-03T00:13:42.079Z,23.90
2022-08-03T00:18:43.787Z,19.20
2022-08-03T00:23:51.139Z,17.30
2022-08-03T00:28:54.314Z,19.70
2022-08-03T00:33:58.151Z,20.50
2022-08-03T00:39:01.556Z,18.00
2022-08-03T00:44:03.311Z,16.70
2022-08-03T00:49:05.052Z,19.20
2022-08-03T00:54:06.754Z,20.10
2022-08-03T00:59:09.871Z,17.70
2022-08-03T01:04:11.535Z,19.30
2022-08-03T01:09:20.904Z,15.70
2022-08-03T01:14:29.587Z,15.20
2022-08-03T01:19:40.866Z,19.50
2022-08-03T01:24:48.395Z,15.40
2022-08-03T01:29:58.936Z,16.10
2022-08-03T01:35:11.702Z,14.40
2022-08-03T01:40:14.549Z,15.70
2022-08-03T01:45:18.743Z,15.50
2022-08-03T01:50:27.740Z,16.20
2022-08-03T01:55:32.171Z,17.70
2022-08-03T02:00:36.592Z,15.90
2022-08-03T02:05:39.328Z,17.20
2022-08-03T02:10:42.182Z,17.70
2022-08-03T02:15:44.925Z,15.10
2022-08-03T02:20:47.287Z,16.70
2022-08-03T02:25:52.980Z,16.20
2022-08-03T02:30:55.470Z,16.00
2022-08-03T02:35:57.727Z,15.90
2022-08-03T02:41:01.229Z,18.90
2022-08-03T02:46:03.161Z,18.40
2022-08-03T02:51:05.241Z,16.70
2022-08-03T02:56:07.327Z,17.00
2022-08-03T03:01:09.842Z,18.80
2022-08-03T03:06:12.848Z,21.50
2022-08-03T03:11:17.848Z,22.90
2022-08-03T03:16:20.003Z,21.60
2022-08-03T03:21:22.154Z,19.20
2022-08-03T03:26:23.994Z,15.70
2022-08-03T03:31:25.712Z,15.50
2022-08-03T03:36:27.387Z,15.70
2022-08-03T03:41:29.469Z,17.90
2022-08-03T03:46:35.679Z,17.60
2022-08-03T03:51:37.584Z,19.40
2022-08-03T03:56:40.112Z,20.30
2022-08-03T04:01:42.183Z,17.90
2022-08-03T04:07:02.742Z,22.30
2022-08-03T04:12:05.312Z,20.70
2022-08-03T04:17:09.036Z,21.50
2022-08-03T04:22:12.040Z,16.80
2022-08-03T04:27:15.557Z,17.90
2022-08-03T04:32:18.298Z,19.80
2022-08-03T04:37:39.184Z,21.50
2022-08-03T04:42:42.717Z,17.50
2022-08-03T04:47:44.786Z,19.20
2022-08-03T04:52:46.665Z,19.90
2022-08-03T04:57:48.440Z,26.00
2022-08-03T05:02:50.424Z,35.60
2022-08-03T05:07:52.305Z,23.20
2022-08-03T05:12:54.928Z,27.90
2022-08-03T05:17:56.643Z,31.30
2022-08-03T05:22:59.343Z,50.30
2022-08-03T05:28:01.575Z,37.60
2022-08-03T05:33:03.879Z,29.90
2022-08-03T05:38:06.187Z,26.60
2022-08-03T05:43:11.197Z,26.30
2022-08-03T05:48:12.832Z,35.90
2022-08-03T05:53:14.754Z,27.10
2022-08-03T05:58:17.656Z,29.20
2022-08-03T06:03:20.356Z,32.20
2022-08-03T06:08:24.281Z,34.80
2022-08-03T06:13:26.065Z,18.20
2022-08-03T06:18:28.019Z,16.90
2022-08-03T06:24:08.463Z,18.10
2022-08-03T06:29:11.368Z,18.60
2022-08-03T06:34:32.396Z,17.30
2022-08-03T06:39:37.078Z,17.70
2022-08-03T06:44:38.950Z,14.70
2022-08-03T06:49:41.702Z,15.10
2022-08-03T06:54:43.719Z,22.30
2022-08-03T07:00:06.275Z,15.20
2022-08-03T07:05:07.942Z,16.30
2022-08-03T07:10:10.397Z,13.90
2022-08-03T07:15:20.607Z,13.60
2022-08-03T07:20:37.100Z,13.60
2022-08-03T07:25:38.972Z,12.00
2022-08-03T07:30:41.034Z,11.50
2022-08-03T07:35:42.838Z,14.40
2022-08-03T07:40:46.375Z,21.00
2022-08-03T07:45:48.643Z,9.20
2022-08-03T07:50:50.957Z,18.90
2022-08-03T07:55:52.664Z,12.10
2022-08-03T08:00:54.540Z,9.80
2022-08-03T08:05:56.311Z,9.30
2022-08-03T08:10:59.191Z,6.70
2022-08-03T08:16:01.014Z,5.00
2022-08-03T08:21:03.645Z,3.60
2022-08-03T08:26:06.341Z,5.20
2022-08-03T08:31:08.222Z,5.60
2022-08-03T08:36:15.073Z,5.40
2022-08-03T08:41:17.377Z,5.30
2022-08-03T08:46:23.079Z,3.90
2022-08-03T08:51:54.415Z,4.50
2022-08-03T08:56:51.622Z,4.10
2022-08-03T09:01:57.081Z,3.80
2022-08-03T09:07:18.825Z,4.90
2022-08-03T09:12:41.155Z,6.00
2022-08-03T09:17:43.439Z,6.60
2022-08-03T09:22:57.719Z,8.70
2022-08-03T09:28:59.859Z,4.00
2022-08-03T09:33:49.586Z,4.20
2022-08-03T09:39:03.031Z,4.60
2022-08-03T09:44:04.963Z,5.20
2022-08-03T09:49:13.201Z,9.50
2022-08-03T09:54:26.547Z,5.60
2022-08-03T09:59:30.372Z,5.10
2022-08-03T10:04:32.060Z,5.00
2022-08-03T10:09:34.128Z,6.80
2022-08-03T10:14:37.443Z,5.30
2022-08-03T10:19:39.629Z,3.40
2022-08-03T10:24:46.727Z,6.50
2022-08-03T10:29:51.578Z,3.90
2022-08-03T10:35:00.353Z,4.20
2022-08-03T10:40:07.421Z,2.90
2022-08-03T10:45:29.575Z,3.70
2022-08-03T10:50:31.569Z,2.60
2022-08-03T10:55:55.147Z,2.70
2022-08-03T11:00:56.865Z,3.30
2022-08-03T11:06:20.404Z,3.90
2022-08-03T11:11:25.876Z,2.90
2022-08-03T11:16:28.026Z,4.30
2022-08-03T11:21:48.768Z,3.00
2022-08-03T11:27:10.527Z,5.90
2022-08-03T11:32:15.478Z,4.70
2022-08-03T11:37:28.558Z,2.60
2022-08-03T11:42:33.449Z,3.00
2022-08-03T11:47:37.810Z,3.10
2022-08-03T11:52:54.362Z,2.90
2022-08-03T11:59:12.973Z,2.70
2022-08-03T12:03:21.040Z,2.20
2022-08-03T12:08:32.385Z,4.00
2022-08-03T12:14:45.435Z,3.90
2022-08-03T12:19:00.489Z,4.10
2022-08-03T12:24:03.557Z,2.60
2022-08-03T12:29:05.322Z,3.60
2022-08-03T12:34:09.071Z,2.30
2022-08-03T12:39:12.066Z,2.10
2022-08-03T12:44:13.869Z,3.00
2022-08-03T12:49:17.481Z,3.10
2022-08-03T12:54:24.845Z,3.30
2022-08-03T12:59:32.189Z,4.40
2022-08-03T13:04:37.352Z,2.90
2022-08-03T13:09:45.873Z,3.10
2022-08-03T13:14:49.202Z,2.90
2022-08-03T13:19:51.588Z,5.40
2022-08-03T13:24:57.885Z,4.30
2022-08-03T13:29:59.856Z,4.70
2022-08-03T13:35:02.952Z,5.50
2022-08-03T13:40:06.146Z,4.50
2022-08-03T13:45:09.590Z,8.20
2022-08-03T13:50:11.574Z,4.70
2022-08-03T13:55:13.452Z,4.50
2022-08-03T14:00:27.319Z,5.00
2022-08-03T14:05:31.956Z,4.90
2022-08-03T14:10:35.500Z,5.40
2022-08-03T14:15:38.222Z,5.90
2022-08-03T14:20:48.660Z,5.00
2022-08-03T14:25:53.329Z,7.00
2022-08-03T14:30:56.212Z,5.20
2022-08-03T14:35:58.292Z,4.80
2022-08-03T14:41:00.168Z,6.30
2022-08-03T14:46:01.973Z,5.00
2022-08-03T14:51:04.232Z,5.00
2022-08-03T14:56:10.153Z,5.90
2022-08-03T15:02:04.729Z,11.80
2022-08-03T15:06:34.349Z,6.60
2022-08-03T15:11:36.842Z,5.80
2022-08-03T15:16:39.129Z,8.20
2022-08-03T15:21:47.236Z,7.30
2022-08-03T15:26:50.638Z,5.70
2022-08-03T15:31:55.720Z,6.10
2022-08-03T15:36:57.505Z,4.60
2022-08-03T15:41:59.380Z,8.00
2022-08-03T15:47:01.365Z,6.00
2022-08-03T15:52:03.344Z,6.60
2022-08-03T15:57:05.080Z,6.10
2022-08-03T16:02:06.898Z,6.00
2022-08-03T16:07:12.886Z,6.20
2022-08-03T16:12:16.170Z,6.20
2022-08-03T16:17:18.769Z,6.30
2022-08-03T16:22:22.162Z,5.80
2022-08-03T16:27:37.367Z,6.50
2022-08-03T16:32:47.495Z,6.40
2022-08-03T16:37:51.843Z,6.60
2022-08-03T16:42:58.699Z,7.00
2022-08-03T16:48:05.460Z,6.50
2022-08-03T16:53:09.212Z,7.60
2022-08-03T16:58:12.532Z,9.00
2022-08-03T17:03:18.788Z,14.10
2022-08-03T17:08:26.807Z,5.70
2022-08-03T17:13:39.994Z,5.60
2022-08-03T17:19:02.340Z,6.10
2022-08-03T17:24:27.692Z,8.50
2022-08-03T17:29:30.096Z,7.10
2022-08-03T17:34:32.458Z,6.70
2022-08-03T17:44:57.617Z,12.40
2022-08-03T17:49:59.495Z,17.60
2022-08-03T17:55:56.878Z,11.90
2022-08-03T18:00:45.248Z,12.60
2022-08-03T18:06:10.862Z,9.40
2022-08-03T18:11:14.580Z,8.30
2022-08-03T18:16:26.107Z,7.20
2022-08-03T18:22:02.109Z,8.30
2022-08-03T18:26:51.770Z,8.80
2022-08-03T18:32:02.272Z,8.10
2022-08-03T18:37:07.811Z,11.40
2022-08-03T18:42:19.485Z,9.20
2022-08-03T18:47:51.619Z,10.90
2022-08-03T18:53:15.568Z,17.30
2022-08-03T18:58:39.736Z,9.90
2022-08-03T19:03:44.367Z,14.20
2022-08-03T19:08:50.442Z,13.50
2022-08-03T19:13:56.933Z,14.80
2022-08-03T19:18:59.936Z,15.20
2022-08-03T19:24:06.600Z,13.60
2022-08-03T19:29:14.861Z,20.10
2022-08-03T19:34:18.266Z,14.10
2022-08-03T19:39:20.387Z,15.30
2022-08-03T19:44:26.329Z,15.30
2022-08-03T19:49:31.281Z,15.10
2022-08-03T19:54:55.253Z,18.60
2022-08-03T19:59:57.572Z,15.80
2022-08-03T20:04:59.876Z,14.50
2022-08-03T20:10:05.035Z,15.80
2022-08-03T20:15:07.650Z,16.00
2022-08-03T20:20:10.632Z,17.70
2022-08-03T20:25:13.225Z,18.90
2022-08-03T20:30:26.400Z,16.80
2022-08-03T20:35:29.366Z,19.90
2022-08-03T20:40:31.052Z,19.40
2022-08-03T20:45:58.457Z,23.70
2022-08-03T20:50:56.678Z,28.70
2022-08-03T20:56:02.087Z,26.60
2022-08-03T21:01:04.677Z,28.40
2022-08-03T21:06:10.163Z,26.10
2022-08-03T21:11:17.981Z,29.60
2022-08-03T21:16:21.546Z,27.50
2022-08-03T21:21:23.862Z,23.60
2022-08-03T21:26:26.358Z,25.20
2022-08-03T21:31:28.483Z,27.60
2022-08-03T21:36:31.487Z,33.40
2022-08-03T21:41:33.428Z,25.10
2022-08-03T21:46:39.361Z,29.40
2022-08-03T21:51:41.390Z,24.70
2022-08-03T21:56:43.574Z,31.40
2022-08-03T22:01:48.889Z,22.30
2022-08-03T22:06:51.284Z,29.00
2022-08-03T22:11:54.348Z,23.60
2022-08-03T22:16:56.625Z,26.40
2022-08-03T22:21:59.426Z,28.60
2022-08-03T22:27:20.360Z,26.40
2022-08-03T22:32:22.638Z,26.60
2022-08-03T22:37:29.028Z,29.90
2022-08-03T22:42:35.412Z,24.60
2022-08-03T22:47:38.397Z,30.20
2022-08-03T22:52:41.645Z,24.40
2022-08-03T22:57:43.393Z,26.00
2022-08-03T23:02:58.439Z,29.80
2022-08-03T23:08:02.836Z,25.30
2022-08-03T23:13:05.380Z,24.10
2022-08-03T23:18:07.615Z,26.60
2022-08-03T23:23:09.850Z,24.10
2022-08-03T23:28:14.091Z,26.10
2022-08-03T23:33:17.152Z,26.10
2022-08-03T23:38:22.256Z,21.90
2022-08-03T23:43:50.974Z,25.60
2022-08-03T23:48:51.442Z,23.00
2022-08-03T23:54:02.105Z,22.80
2022-08-03T23:59:14.318Z,23.00
